sensor_id;sensor_type;location;lat;lon;timestamp;temperature;humidity
4054;DHT22;2042;47.956;9.222;2022-12-18T00:00:53;-5.80;1.00
4054;DHT22;2042;47.956;9.222;2022-12-18T00:03:19;-5.70;1.00
4054;DHT22;2042;47.956;9.222;2022-12-18T00:05:49;-5.70;1.00
4054;DHT22;2042;47.956;9.222;2022-12-18T00:08:16;-5.70;1.00
4054;DHT22;2042;47.956;9.222;2022-12-18T00:10:42;-5.70;1.00
4054;DHT22;2042;47.956;9.222;2022-12-18T00:13:08;-5.70;1.00
4054;DHT22;2042;47.956;9.222;2022-12-18T00:15:35;-5.70;1.00
4054;DHT22;2042;47.956;9.222;2022-12-18T00:18:00;-5.70;1.00
4054;DHT22;2042;47.956;9.222;2022-12-18T00:20:26;-5.70;1.00
4054;DHT22;2042;47.956;9.222;2022-12-18T00:22:53;-5.70;1.00
4054;DHT22;2042;47.956;9.222;2022-12-18T00:25:18;-5.70;1.00
4054;DHT22;2042;47.956;9.222;2022-12-18T00:27:45;-5.70;1.00
4054;DHT22;2042;47.956;9.222;2022-12-18T00:30:11;-5.70;1.00
4054;DHT22;2042;47.956;9.222;2022-12-18T00:32:36;-5.70;1.00
4054;DHT22;2042;47.956;9.222;2022-12-18T00:35:03;-5.60;1.00
4054;DHT22;2042;47.956;9.222;2022-12-18T00:37:29;-5.60;1.00
4054;DHT22;2042;47.956;9.222;2022-12-18T00:39:55;-5.60;1.00
4054;DHT22;2042;47.956;9.222;2022-12-18T00:42:21;-5.60;1.00
4054;DHT22;2042;47.956;9.222;2022-12-18T00:45:05;-5.60;1.00
4054;DHT22;2042;47.956;9.222;2022-12-18T00:47:31;-5.60;1.00
4054;DHT22;2042;47.956;9.222;2022-12-18T00:49:57;-5.60;1.00
4054;DHT22;2042;47.956;9.222;2022-12-18T00:52:23;-5.70;1.00
4054;DHT22;2042;47.956;9.222;2022-12-18T00:54:48;-5.80;1.00
4054;DHT22;2042;47.956;9.222;2022-12-18T00:57:14;-5.80;1.00
4054;DHT22;2042;47.956;9.222;2022-12-18T00:59:40;-5.80;1.00
4054;DHT22;2042;47.956;9.222;2022-12-18T01:02:05;-5.80;1.00
4054;DHT22;2042;47.956;9.222;2022-12-18T01:04:32;-5.70;1.00
4054;DHT22;2042;47.956;9.222;2022-12-18T01:06:57;-5.70;1.00
4054;DHT22;2042;47.956;9.222;2022-12-18T01:09:23;-5.60;1.00
4054;DHT22;2042;47.956;9.222;2022-12-18T01:11:49;-5.60;1.00
4054;DHT22;2042;47.956;9.222;2022-12-18T01:14:15;-5.60;1.00
4054;DHT22;2042;47.956;9.222;2022-12-18T01:16:41;-5.70;1.00
4054;DHT22;2042;47.956;9.222;2022-12-18T01:19:06;-5.70;1.00
4054;DHT22;2042;47.956;9.222;2022-12-18T01:21:32;-5.60;1.00
4054;DHT22;2042;47.956;9.222;2022-12-18T01:23:58;-5.60;1.00
4054;DHT22;2042;47.956;9.222;2022-12-18T01:26:24;-5.60;1.00
4054;DHT22;2042;47.956;9.222;2022-12-18T01:28:50;-5.60;1.00
4054;DHT22;2042;47.956;9.222;2022-12-18T01:31:19;-5.60;1.00
4054;DHT22;2042;47.956;9.222;2022-12-18T01:33:46;-5.60;1.00
4054;DHT22;2042;47.956;9.222;2022-12-18T01:36:21;-5.70;1.00
4054;DHT22;2042;47.956;9.222;2022-12-18T01:38:48;-5.70;1.00
4054;DHT22;2042;47.956;9.222;2022-12-18T01:41:16;-5.60;1.00
4054;DHT22;2042;47.956;9.222;2022-12-18T01:43:46;-5.60;1.00
4054;DHT22;2042;47.956;9.222;2022-12-18T01:46:13;-5.50;1.00
4054;DHT22;2042;47.956;9.222;2022-12-18T01:48:40;-5.50;1.00
4054;DHT22;2042;47.956;9.222;2022-12-18T01:51:08;-5.50;1.00
4054;DHT22;2042;47.956;9.222;2022-12-18T01:53:35;-5.50;1.00
4054;DHT22;2042;47.956;9.222;2022-12-18T01:56:01;-5.50;1.00
4054;DHT22;2042;47.956;9.222;2022-12-18T01:58:41;-5.50;1.00
4054;DHT22;2042;47.956;9.222;2022-12-18T02:01:10;-5.50;1.00
4054;DHT22;2042;47.956;9.222;2022-12-18T02:03:35;-5.60;1.00
4054;DHT22;2042;47.956;9.222;2022-12-18T02:06:16;-5.50;1.00
4054;DHT22;2042;47.956;9.222;2022-12-18T02:09:11;-5.50;1.00
4054;DHT22;2042;47.956;9.222;2022-12-18T02:11:53;-5.60;1.00
4054;DHT22;2042;47.956;9.222;2022-12-18T02:14:34;-5.60;1.00
4054;DHT22;2042;47.956;9.222;2022-12-18T02:28:11;-5.70;1.00
4054;DHT22;2042;47.956;9.222;2022-12-18T02:30:39;-5.70;1.00
4054;DHT22;2042;47.956;9.222;2022-12-18T02:33:07;-5.70;1.00
4054;DHT22;2042;47.956;9.222;2022-12-18T02:35:34;-5.60;1.00
4054;DHT22;2042;47.956;9.222;2022-12-18T02:38:03;-5.60;1.00
4054;DHT22;2042;47.956;9.222;2022-12-18T02:40:30;-5.60;1.00
4054;DHT22;2042;47.956;9.222;2022-12-18T02:43:12;-5.50;1.00
4054;DHT22;2042;47.956;9.222;2022-12-18T02:45:55;-5.50;1.00
4054;DHT22;2042;47.956;9.222;2022-12-18T02:48:24;-5.50;1.00
4054;DHT22;2042;47.956;9.222;2022-12-18T02:51:15;-5.40;1.00
4054;DHT22;2042;47.956;9.222;2022-12-18T02:54:07;-5.40;1.00
4054;DHT22;2042;47.956;9.222;2022-12-18T02:56:46;-5.40;1.00
4054;DHT22;2042;47.956;9.222;2022-12-18T02:59:19;-5.40;1.00
4054;DHT22;2042;47.956;9.222;2022-12-18T03:05:02;-5.40;1.00
4054;DHT22;2042;47.956;9.222;2022-12-18T03:07:38;-5.50;1.00
4054;DHT22;2042;47.956;9.222;2022-12-18T03:10:07;-5.50;1.00
4054;DHT22;2042;47.956;9.222;2022-12-18T03:12:41;-5.50;1.00
4054;DHT22;2042;47.956;9.222;2022-12-18T03:15:16;-5.50;1.00
4054;DHT22;2042;47.956;9.222;2022-12-18T03:18:13;-5.40;1.00
4054;DHT22;2042;47.956;9.222;2022-12-18T03:20:39;-5.50;1.00
4054;DHT22;2042;47.956;9.222;2022-12-18T03:23:10;-5.50;1.00
4054;DHT22;2042;47.956;9.222;2022-12-18T03:25:39;-5.50;1.00
4054;DHT22;2042;47.956;9.222;2022-12-18T03:28:07;-5.50;1.00
4054;DHT22;2042;47.956;9.222;2022-12-18T03:30:37;-5.60;1.00
4054;DHT22;2042;47.956;9.222;2022-12-18T03:33:08;-5.60;1.00
4054;DHT22;2042;47.956;9.222;2022-12-18T03:35:40;-5.60;1.00
4054;DHT22;2042;47.956;9.222;2022-12-18T03:38:07;-5.60;1.00
4054;DHT22;2042;47.956;9.222;2022-12-18T03:41:06;-5.60;1.00
4054;DHT22;2042;47.956;9.222;2022-12-18T03:43:53;-5.70;1.00
4054;DHT22;2042;47.956;9.222;2022-12-18T03:49:41;-5.70;1.00
4054;DHT22;2042;47.956;9.222;2022-12-18T03:52:26;-5.70;1.00
4054;DHT22;2042;47.956;9.222;2022-12-18T03:54:54;-5.70;1.00
4054;DHT22;2042;47.956;9.222;2022-12-18T03:57:23;-5.70;1.00
4054;DHT22;2042;47.956;9.222;2022-12-18T03:59:52;-5.70;1.00
4054;DHT22;2042;47.956;9.222;2022-12-18T04:02:21;-5.70;1.00
4054;DHT22;2042;47.956;9.222;2022-12-18T04:04:50;-5.60;1.00
4054;DHT22;2042;47.956;9.222;2022-12-18T04:07:17;-5.50;1.00
4054;DHT22;2042;47.956;9.222;2022-12-18T04:09:44;-5.50;1.00
4054;DHT22;2042;47.956;9.222;2022-12-18T04:12:10;-5.40;1.00
4054;DHT22;2042;47.956;9.222;2022-12-18T04:14:36;-5.40;1.00
4054;DHT22;2042;47.956;9.222;2022-12-18T04:17:02;-5.30;1.00
4054;DHT22;2042;47.956;9.222;2022-12-18T04:19:28;-5.30;1.00
4054;DHT22;2042;47.956;9.222;2022-12-18T04:21:54;-5.30;1.00
4054;DHT22;2042;47.956;9.222;2022-12-18T04:24:20;-5.30;1.00
4054;DHT22;2042;47.956;9.222;2022-12-18T04:26:46;-5.30;1.00
4054;DHT22;2042;47.956;9.222;2022-12-18T04:29:11;-5.20;1.00
4054;DHT22;2042;47.956;9.222;2022-12-18T04:31:37;-5.20;1.00
4054;DHT22;2042;47.956;9.222;2022-12-18T04:34:03;-5.30;1.00
4054;DHT22;2042;47.956;9.222;2022-12-18T04:36:29;-5.40;1.00
4054;DHT22;2042;47.956;9.222;2022-12-18T04:38:54;-5.50;1.00
4054;DHT22;2042;47.956;9.222;2022-12-18T04:41:20;-5.50;1.00
4054;DHT22;2042;47.956;9.222;2022-12-18T04:43:46;-5.50;1.00
4054;DHT22;2042;47.956;9.222;2022-12-18T04:46:12;-5.50;1.00
4054;DHT22;2042;47.956;9.222;2022-12-18T04:48:38;-5.50;1.00
4054;DHT22;2042;47.956;9.222;2022-12-18T04:51:05;-5.50;1.00
4054;DHT22;2042;47.956;9.222;2022-12-18T04:53:31;-5.50;1.00
4054;DHT22;2042;47.956;9.222;2022-12-18T04:56:05;-5.50;1.00
4054;DHT22;2042;47.956;9.222;2022-12-18T04:58:31;-5.40;1.00
4054;DHT22;2042;47.956;9.222;2022-12-18T05:00:57;-5.40;1.00
4054;DHT22;2042;47.956;9.222;2022-12-18T05:03:22;-5.40;1.00
4054;DHT22;2042;47.956;9.222;2022-12-18T05:05:51;-5.30;1.00
4054;DHT22;2042;47.956;9.222;2022-12-18T05:08:17;-5.40;1.00
4054;DHT22;2042;47.956;9.222;2022-12-18T05:10:43;-5.60;1.00
4054;DHT22;2042;47.956;9.222;2022-12-18T05:13:09;-5.60;1.00
4054;DHT22;2042;47.956;9.222;2022-12-18T05:15:35;-5.60;1.00
4054;DHT22;2042;47.956;9.222;2022-12-18T05:18:01;-5.60;1.00
4054;DHT22;2042;47.956;9.222;2022-12-18T05:20:28;-5.60;1.00
4054;DHT22;2042;47.956;9.222;2022-12-18T05:22:54;-5.50;1.00
4054;DHT22;2042;47.956;9.222;2022-12-18T05:25:20;-5.50;1.00
4054;DHT22;2042;47.956;9.222;2022-12-18T05:27:47;-5.50;1.00
4054;DHT22;2042;47.956;9.222;2022-12-18T05:30:14;-5.50;1.00
4054;DHT22;2042;47.956;9.222;2022-12-18T05:32:40;-5.40;1.00
4054;DHT22;2042;47.956;9.222;2022-12-18T05:35:07;-5.30;1.00
4054;DHT22;2042;47.956;9.222;2022-12-18T05:37:33;-5.30;1.00
4054;DHT22;2042;47.956;9.222;2022-12-18T05:39:59;-5.30;1.00
4054;DHT22;2042;47.956;9.222;2022-12-18T05:42:25;-5.30;1.00
4054;DHT22;2042;47.956;9.222;2022-12-18T05:44:50;-5.30;1.00
4054;DHT22;2042;47.956;9.222;2022-12-18T05:47:16;-5.30;1.00
4054;DHT22;2042;47.956;9.222;2022-12-18T05:49:42;-5.40;1.00
4054;DHT22;2042;47.956;9.222;2022-12-18T05:52:08;-5.40;1.00
4054;DHT22;2042;47.956;9.222;2022-12-18T05:54:34;-5.50;1.00
4054;DHT22;2042;47.956;9.222;2022-12-18T05:57:00;-5.50;1.00
4054;DHT22;2042;47.956;9.222;2022-12-18T05:59:25;-5.50;1.00
4054;DHT22;2042;47.956;9.222;2022-12-18T06:01:51;-5.50;1.00
4054;DHT22;2042;47.956;9.222;2022-12-18T06:04:17;-5.40;1.00
4054;DHT22;2042;47.956;9.222;2022-12-18T06:06:42;-5.30;1.00
4054;DHT22;2042;47.956;9.222;2022-12-18T06:09:08;-5.30;1.00
4054;DHT22;2042;47.956;9.222;2022-12-18T06:11:38;-5.40;1.00
4054;DHT22;2042;47.956;9.222;2022-12-18T06:14:05;-5.40;1.00
4054;DHT22;2042;47.956;9.222;2022-12-18T06:16:32;-5.50;1.00
4054;DHT22;2042;47.956;9.222;2022-12-18T06:19:04;-5.50;1.00
4054;DHT22;2042;47.956;9.222;2022-12-18T06:21:30;-5.50;1.00
4054;DHT22;2042;47.956;9.222;2022-12-18T06:23:56;-5.50;1.00
4054;DHT22;2042;47.956;9.222;2022-12-18T06:26:22;-5.60;1.00
4054;DHT22;2042;47.956;9.222;2022-12-18T06:28:48;-5.70;1.00
4054;DHT22;2042;47.956;9.222;2022-12-18T06:31:13;-5.70;1.00
4054;DHT22;2042;47.956;9.222;2022-12-18T06:33:39;-5.70;1.00
4054;DHT22;2042;47.956;9.222;2022-12-18T06:36:11;-5.60;1.00
4054;DHT22;2042;47.956;9.222;2022-12-18T06:38:40;-5.50;1.00
4054;DHT22;2042;47.956;9.222;2022-12-18T06:41:11;-5.40;1.00
4054;DHT22;2042;47.956;9.222;2022-12-18T06:43:37;-5.40;1.00
4054;DHT22;2042;47.956;9.222;2022-12-18T06:46:04;-5.40;1.00
4054;DHT22;2042;47.956;9.222;2022-12-18T06:48:31;-5.40;1.00
4054;DHT22;2042;47.956;9.222;2022-12-18T06:50:57;-5.40;1.00
4054;DHT22;2042;47.956;9.222;2022-12-18T06:53:23;-5.30;1.00
4054;DHT22;2042;47.956;9.222;2022-12-18T06:55:49;-5.30;1.00
4054;DHT22;2042;47.956;9.222;2022-12-18T06:58:14;-5.30;1.00
4054;DHT22;2042;47.956;9.222;2022-12-18T07:00:40;-5.30;1.00
4054;DHT22;2042;47.956;9.222;2022-12-18T07:03:06;-5.30;1.00
4054;DHT22;2042;47.956;9.222;2022-12-18T07:05:31;-5.30;1.00
4054;DHT22;2042;47.956;9.222;2022-12-18T07:07:58;-5.30;1.00
4054;DHT22;2042;47.956;9.222;2022-12-18T07:10:24;-5.40;1.00
4054;DHT22;2042;47.956;9.222;2022-12-18T07:12:49;-5.50;1.00
4054;DHT22;2042;47.956;9.222;2022-12-18T07:15:15;-5.50;1.00
4054;DHT22;2042;47.956;9.222;2022-12-18T07:17:41;-5.50;1.00
4054;DHT22;2042;47.956;9.222;2022-12-18T07:20:07;-5.50;1.00
4054;DHT22;2042;47.956;9.222;2022-12-18T07:22:33;-5.60;1.00
4054;DHT22;2042;47.956;9.222;2022-12-18T07:24:59;-5.60;1.00
4054;DHT22;2042;47.956;9.222;2022-12-18T07:27:24;-5.60;1.00
4054;DHT22;2042;47.956;9.222;2022-12-18T07:29:50;-5.60;1.00
4054;DHT22;2042;47.956;9.222;2022-12-18T07:32:16;-5.60;1.00
4054;DHT22;2042;47.956;9.222;2022-12-18T07:34:41;-5.60;1.00
4054;DHT22;2042;47.956;9.222;2022-12-18T07:37:07;-5.50;1.00
4054;DHT22;2042;47.956;9.222;2022-12-18T07:39:33;-5.50;1.00
4054;DHT22;2042;47.956;9.222;2022-12-18T07:41:58;-5.60;1.00
4054;DHT22;2042;47.956;9.222;2022-12-18T07:44:42;-5.50;1.00
4054;DHT22;2042;47.956;9.222;2022-12-18T07:47:08;-5.40;1.00
4054;DHT22;2042;47.956;9.222;2022-12-18T07:49:34;-5.40;1.00
4054;DHT22;2042;47.956;9.222;2022-12-18T07:51:59;-5.20;1.00
4054;DHT22;2042;47.956;9.222;2022-12-18T07:54:25;-5.20;1.00
4054;DHT22;2042;47.956;9.222;2022-12-18T07:56:51;-5.10;1.00
4054;DHT22;2042;47.956;9.222;2022-12-18T07:59:17;-5.10;1.00
4054;DHT22;2042;47.956;9.222;2022-12-18T08:01:44;-5.00;1.00
4054;DHT22;2042;47.956;9.222;2022-12-18T08:04:09;-5.10;1.00
4054;DHT22;2042;47.956;9.222;2022-12-18T08:06:35;-5.00;1.00
4054;DHT22;2042;47.956;9.222;2022-12-18T08:09:01;-5.10;1.00
4054;DHT22;2042;47.956;9.222;2022-12-18T08:11:28;-5.10;1.00
4054;DHT22;2042;47.956;9.222;2022-12-18T08:13:54;-5.10;1.00
4054;DHT22;2042;47.956;9.222;2022-12-18T08:16:21;-5.00;1.00
4054;DHT22;2042;47.956;9.222;2022-12-18T08:18:47;-4.90;1.00
4054;DHT22;2042;47.956;9.222;2022-12-18T08:21:16;-4.80;1.00
4054;DHT22;2042;47.956;9.222;2022-12-18T08:23:42;-4.60;1.00
4054;DHT22;2042;47.956;9.222;2022-12-18T08:26:08;-4.50;1.00
4054;DHT22;2042;47.956;9.222;2022-12-18T08:28:35;-4.40;1.00
4054;DHT22;2042;47.956;9.222;2022-12-18T08:31:01;-4.30;1.00
4054;DHT22;2042;47.956;9.222;2022-12-18T08:33:27;-4.20;1.00
4054;DHT22;2042;47.956;9.222;2022-12-18T08:35:52;-4.20;1.00
4054;DHT22;2042;47.956;9.222;2022-12-18T08:38:18;-4.20;1.00
4054;DHT22;2042;47.956;9.222;2022-12-18T08:40:44;-4.20;1.00
4054;DHT22;2042;47.956;9.222;2022-12-18T08:43:11;-4.10;1.00
4054;DHT22;2042;47.956;9.222;2022-12-18T08:45:55;-4.20;1.00
4054;DHT22;2042;47.956;9.222;2022-12-18T08:48:21;-4.10;1.00
4054;DHT22;2042;47.956;9.222;2022-12-18T08:50:57;-4.10;1.00
4054;DHT22;2042;47.956;9.222;2022-12-18T08:53:23;-4.00;1.00
4054;DHT22;2042;47.956;9.222;2022-12-18T08:55:49;-3.90;1.00
4054;DHT22;2042;47.956;9.222;2022-12-18T08:58:15;-4.00;1.00
4054;DHT22;2042;47.956;9.222;2022-12-18T09:00:41;-3.90;1.00
4054;DHT22;2042;47.956;9.222;2022-12-18T09:03:14;-3.80;1.00
4054;DHT22;2042;47.956;9.222;2022-12-18T09:05:40;-3.80;1.00
4054;DHT22;2042;47.956;9.222;2022-12-18T09:08:06;-3.60;1.00
4054;DHT22;2042;47.956;9.222;2022-12-18T09:10:32;-3.40;1.00
4054;DHT22;2042;47.956;9.222;2022-12-18T09:12:58;-3.40;1.00
4054;DHT22;2042;47.956;9.222;2022-12-18T09:15:24;-3.40;1.00
4054;DHT22;2042;47.956;9.222;2022-12-18T09:17:49;-3.40;1.00
4054;DHT22;2042;47.956;9.222;2022-12-18T09:20:16;-3.30;1.00
4054;DHT22;2042;47.956;9.222;2022-12-18T09:22:42;-3.20;1.00
4054;DHT22;2042;47.956;9.222;2022-12-18T09:25:07;-3.10;1.00
4054;DHT22;2042;47.956;9.222;2022-12-18T09:27:34;-3.00;1.00
4054;DHT22;2042;47.956;9.222;2022-12-18T09:30:00;-2.80;1.00
4054;DHT22;2042;47.956;9.222;2022-12-18T09:32:26;-2.70;1.00
4054;DHT22;2042;47.956;9.222;2022-12-18T09:34:51;-2.60;1.00
4054;DHT22;2042;47.956;9.222;2022-12-18T09:37:17;-2.50;1.00
4054;DHT22;2042;47.956;9.222;2022-12-18T09:39:43;-2.50;1.00
4054;DHT22;2042;47.956;9.222;2022-12-18T09:42:20;-2.60;1.00
4054;DHT22;2042;47.956;9.222;2022-12-18T09:44:50;-2.60;1.00
4054;DHT22;2042;47.956;9.222;2022-12-18T09:49:53;-3.10;1.00
4054;DHT22;2042;47.956;9.222;2022-12-18T09:52:27;-3.20;1.00
4054;DHT22;2042;47.956;9.222;2022-12-18T09:55:01;-3.20;1.00
4054;DHT22;2042;47.956;9.222;2022-12-18T09:57:31;-3.10;1.00
4054;DHT22;2042;47.956;9.222;2022-12-18T10:00:16;-2.80;1.00
4054;DHT22;2042;47.956;9.222;2022-12-18T10:02:43;-2.50;1.00
4054;DHT22;2042;47.956;9.222;2022-12-18T10:11:36;-2.40;1.00
4054;DHT22;2042;47.956;9.222;2022-12-18T10:27:42;-2.10;1.00
4054;DHT22;2042;47.956;9.222;2022-12-18T10:30:20;-2.10;1.00
4054;DHT22;2042;47.956;9.222;2022-12-18T10:32:46;-2.20;1.00
4054;DHT22;2042;47.956;9.222;2022-12-18T10:35:30;-2.30;1.00
4054;DHT22;2042;47.956;9.222;2022-12-18T10:38:23;-2.40;1.00
4054;DHT22;2042;47.956;9.222;2022-12-18T10:43:41;-2.40;1.00
4054;DHT22;2042;47.956;9.222;2022-12-18T10:48:40;-2.10;1.00
4054;DHT22;2042;47.956;9.222;2022-12-18T10:51:09;-1.80;1.00
4054;DHT22;2042;47.956;9.222;2022-12-18T10:53:37;-1.60;1.00
4054;DHT22;2042;47.956;9.222;2022-12-18T10:56:04;-1.60;1.00
4054;DHT22;2042;47.956;9.222;2022-12-18T11:06:18;-1.40;1.00
4054;DHT22;2042;47.956;9.222;2022-12-18T11:09:19;-1.40;1.00
4054;DHT22;2042;47.956;9.222;2022-12-18T11:11:55;-1.60;1.00
4054;DHT22;2042;47.956;9.222;2022-12-18T11:14:29;-1.60;1.00
4054;DHT22;2042;47.956;9.222;2022-12-18T11:16:57;-1.50;1.00
4054;DHT22;2042;47.956;9.222;2022-12-18T11:19:36;-1.40;1.00
4054;DHT22;2042;47.956;9.222;2022-12-18T11:22:17;-1.40;1.00
4054;DHT22;2042;47.956;9.222;2022-12-18T11:25:01;-1.50;1.00
4054;DHT22;2042;47.956;9.222;2022-12-18T11:27:28;-1.40;1.00
4054;DHT22;2042;47.956;9.222;2022-12-18T11:30:30;-1.70;1.00
4054;DHT22;2042;47.956;9.222;2022-12-18T11:33:15;-1.80;1.00
4054;DHT22;2042;47.956;9.222;2022-12-18T11:35:49;-1.80;1.00
4054;DHT22;2042;47.956;9.222;2022-12-18T11:38:28;-1.90;1.00
4054;DHT22;2042;47.956;9.222;2022-12-18T11:41:19;-1.60;1.00
4054;DHT22;2042;47.956;9.222;2022-12-18T11:43:54;-1.40;1.00
4054;DHT22;2042;47.956;9.222;2022-12-18T11:46:40;-1.20;1.00
4054;DHT22;2042;47.956;9.222;2022-12-18T11:51:58;-0.90;1.00
4054;DHT22;2042;47.956;9.222;2022-12-18T11:54:25;-0.70;1.00
4054;DHT22;2042;47.956;9.222;2022-12-18T11:56:56;-0.70;1.00
4054;DHT22;2042;47.956;9.222;2022-12-18T11:59:46;-0.80;1.00
4054;DHT22;2042;47.956;9.222;2022-12-18T12:02:29;-1.00;1.00
4054;DHT22;2042;47.956;9.222;2022-12-18T12:08:14;-1.40;1.00
4054;DHT22;2042;47.956;9.222;2022-12-18T12:11:07;-1.50;1.00
4054;DHT22;2042;47.956;9.222;2022-12-18T12:14:03;-1.50;1.00
4054;DHT22;2042;47.956;9.222;2022-12-18T12:22:02;-1.30;1.00
4054;DHT22;2042;47.956;9.222;2022-12-18T12:27:29;-1.00;1.00
4054;DHT22;2042;47.956;9.222;2022-12-18T12:30:08;-0.80;1.00
4054;DHT22;2042;47.956;9.222;2022-12-18T12:33:10;-0.40;1.00
4054;DHT22;2042;47.956;9.222;2022-12-18T12:38:44;-0.10;1.00
4054;DHT22;2042;47.956;9.222;2022-12-18T12:41:18;0.00;1.00
4054;DHT22;2042;47.956;9.222;2022-12-18T12:44:07;0.00;1.00
4054;DHT22;2042;47.956;9.222;2022-12-18T12:46:37;-0.10;1.00
4054;DHT22;2042;47.956;9.222;2022-12-18T12:49:15;-0.10;1.00
4054;DHT22;2042;47.956;9.222;2022-12-18T12:51:44;-0.10;1.00
4054;DHT22;2042;47.956;9.222;2022-12-18T12:54:22;-0.20;1.00
4054;DHT22;2042;47.956;9.222;2022-12-18T12:59:46;-0.60;1.00
4054;DHT22;2042;47.956;9.222;2022-12-18T13:08:07;-0.60;1.00
4054;DHT22;2042;47.956;9.222;2022-12-18T13:10:41;-0.70;1.00
4054;DHT22;2042;47.956;9.222;2022-12-18T13:13:12;-0.70;1.00
4054;DHT22;2042;47.956;9.222;2022-12-18T13:15:42;-0.70;1.00
4054;DHT22;2042;47.956;9.222;2022-12-18T13:20:48;-0.80;1.00
4054;DHT22;2042;47.956;9.222;2022-12-18T13:25:51;-1.10;1.00
4054;DHT22;2042;47.956;9.222;2022-12-18T13:30:58;-1.00;1.00
4054;DHT22;2042;47.956;9.222;2022-12-18T13:40:58;-0.80;1.00
4054;DHT22;2042;47.956;9.222;2022-12-18T13:43:45;-1.10;1.00
4054;DHT22;2042;47.956;9.222;2022-12-18T13:49:20;-1.10;1.00
4054;DHT22;2042;47.956;9.222;2022-12-18T13:51:49;-1.00;1.00
4054;DHT22;2042;47.956;9.222;2022-12-18T13:54:19;-0.90;1.00
4054;DHT22;2042;47.956;9.222;2022-12-18T13:56:48;-0.90;1.00
4054;DHT22;2042;47.956;9.222;2022-12-18T13:59:25;-0.90;1.00
4054;DHT22;2042;47.956;9.222;2022-12-18T14:04:23;-1.00;1.00
4054;DHT22;2042;47.956;9.222;2022-12-18T14:06:52;-1.10;1.00
4054;DHT22;2042;47.956;9.222;2022-12-18T14:09:25;-1.10;1.00
4054;DHT22;2042;47.956;9.222;2022-12-18T14:11:52;-1.10;1.00
4054;DHT22;2042;47.956;9.222;2022-12-18T14:14:45;-1.10;1.00
4054;DHT22;2042;47.956;9.222;2022-12-18T14:17:13;-1.10;1.00
4054;DHT22;2042;47.956;9.222;2022-12-18T14:19:44;-1.10;1.00
4054;DHT22;2042;47.956;9.222;2022-12-18T14:22:22;-1.20;1.00
4054;DHT22;2042;47.956;9.222;2022-12-18T14:25:26;-1.30;1.00
4054;DHT22;2042;47.956;9.222;2022-12-18T14:30:37;-1.60;1.00
4054;DHT22;2042;47.956;9.222;2022-12-18T14:33:11;-1.70;1.00
4054;DHT22;2042;47.956;9.222;2022-12-18T14:35:40;-1.90;1.00
4054;DHT22;2042;47.956;9.222;2022-12-18T14:40:47;-2.30;1.00
4054;DHT22;2042;47.956;9.222;2022-12-18T14:43:13;-2.50;1.00
4054;DHT22;2042;47.956;9.222;2022-12-18T14:45:42;-2.50;1.00
4054;DHT22;2042;47.956;9.222;2022-12-18T14:48:30;-2.50;1.00
4054;DHT22;2042;47.956;9.222;2022-12-18T14:51:19;-2.50;1.00
4054;DHT22;2042;47.956;9.222;2022-12-18T14:54:04;-2.30;1.00
4054;DHT22;2042;47.956;9.222;2022-12-18T14:56:37;-2.30;1.00
4054;DHT22;2042;47.956;9.222;2022-12-18T14:59:17;-2.40;1.00
4054;DHT22;2042;47.956;9.222;2022-12-18T15:01:47;-2.50;1.00
4054;DHT22;2042;47.956;9.222;2022-12-18T15:04:27;-2.70;1.00
4054;DHT22;2042;47.956;9.222;2022-12-18T15:07:23;-2.80;1.00
4054;DHT22;2042;47.956;9.222;2022-12-18T15:15:41;-3.20;1.00
4054;DHT22;2042;47.956;9.222;2022-12-18T15:17:57;-3.30;1.00
4054;DHT22;2042;47.956;9.222;2022-12-18T15:20:23;-3.30;1.00
4054;DHT22;2042;47.956;9.222;2022-12-18T15:22:49;-3.40;1.00
4054;DHT22;2042;47.956;9.222;2022-12-18T15:25:35;-3.40;1.00
4054;DHT22;2042;47.956;9.222;2022-12-18T15:28:03;-3.40;1.00
4054;DHT22;2042;47.956;9.222;2022-12-18T15:30:29;-3.30;1.00
4054;DHT22;2042;47.956;9.222;2022-12-18T15:33:22;-3.30;1.00
4054;DHT22;2042;47.956;9.222;2022-12-18T15:35:59;-3.30;1.00
4054;DHT22;2042;47.956;9.222;2022-12-18T15:38:26;-3.30;1.00
4054;DHT22;2042;47.956;9.222;2022-12-18T15:40:53;-3.40;1.00
4054;DHT22;2042;47.956;9.222;2022-12-18T15:43:21;-3.40;1.00
4054;DHT22;2042;47.956;9.222;2022-12-18T15:46:21;-3.50;1.00
4054;DHT22;2042;47.956;9.222;2022-12-18T15:48:55;-3.60;1.00
4054;DHT22;2042;47.956;9.222;2022-12-18T15:53:52;-3.60;1.00
4054;DHT22;2042;47.956;9.222;2022-12-18T15:56:19;-3.50;1.00
4054;DHT22;2042;47.956;9.222;2022-12-18T15:59:12;-3.40;1.00
4054;DHT22;2042;47.956;9.222;2022-12-18T16:01:38;-3.30;1.00
4054;DHT22;2042;47.956;9.222;2022-12-18T16:04:03;-3.30;1.00
4054;DHT22;2042;47.956;9.222;2022-12-18T16:06:29;-3.30;1.10
4054;DHT22;2042;47.956;9.222;2022-12-18T16:08:55;-3.20;2.10
4054;DHT22;2042;47.956;9.222;2022-12-18T16:11:28;-3.20;3.00
4054;DHT22;2042;47.956;9.222;2022-12-18T16:14:22;-3.10;3.70
4054;DHT22;2042;47.956;9.222;2022-12-18T16:16:52;-3.10;3.70
4054;DHT22;2042;47.956;9.222;2022-12-18T16:19:18;-3.20;3.60
4054;DHT22;2042;47.956;9.222;2022-12-18T16:21:45;-3.20;4.10
4054;DHT22;2042;47.956;9.222;2022-12-18T16:24:37;-3.30;4.30
4054;DHT22;2042;47.956;9.222;2022-12-18T16:27:03;-3.40;4.80
4054;DHT22;2042;47.956;9.222;2022-12-18T16:29:29;-3.40;5.20
4054;DHT22;2042;47.956;9.222;2022-12-18T16:31:54;-3.40;5.50
4054;DHT22;2042;47.956;9.222;2022-12-18T16:34:26;-3.40;6.80
4054;DHT22;2042;47.956;9.222;2022-12-18T16:36:54;-3.30;7.90
4054;DHT22;2042;47.956;9.222;2022-12-18T16:39:21;-3.30;8.30
4054;DHT22;2042;47.956;9.222;2022-12-18T16:41:47;-3.30;8.70
4054;DHT22;2042;47.956;9.222;2022-12-18T16:44:13;-3.30;8.90
4054;DHT22;2042;47.956;9.222;2022-12-18T16:46:39;-3.40;8.90
4054;DHT22;2042;47.956;9.222;2022-12-18T16:49:08;-3.50;8.80
4054;DHT22;2042;47.956;9.222;2022-12-18T16:51:34;-3.50;8.80
4054;DHT22;2042;47.956;9.222;2022-12-18T16:54:00;-3.60;8.90
4054;DHT22;2042;47.956;9.222;2022-12-18T16:56:26;-3.60;9.10
4054;DHT22;2042;47.956;9.222;2022-12-18T16:58:57;-3.70;9.40
4054;DHT22;2042;47.956;9.222;2022-12-18T17:01:24;-3.70;10.10
4054;DHT22;2042;47.956;9.222;2022-12-18T17:03:54;-3.70;10.70
4054;DHT22;2042;47.956;9.222;2022-12-18T17:06:24;-3.60;11.10
4054;DHT22;2042;47.956;9.222;2022-12-18T17:09:02;-3.70;11.20
4054;DHT22;2042;47.956;9.222;2022-12-18T17:11:30;-3.70;11.70
4054;DHT22;2042;47.956;9.222;2022-12-18T17:13:56;-3.70;12.20
4054;DHT22;2042;47.956;9.222;2022-12-18T17:16:22;-3.60;12.40
4054;DHT22;2042;47.956;9.222;2022-12-18T17:18:49;-3.60;12.90
4054;DHT22;2042;47.956;9.222;2022-12-18T17:21:15;-3.60;13.20
4054;DHT22;2042;47.956;9.222;2022-12-18T17:23:41;-3.60;13.50
4054;DHT22;2042;47.956;9.222;2022-12-18T17:26:11;-3.60;13.90
4054;DHT22;2042;47.956;9.222;2022-12-18T17:28:38;-3.60;14.10
4054;DHT22;2042;47.956;9.222;2022-12-18T17:31:17;-3.50;14.40
4054;DHT22;2042;47.956;9.222;2022-12-18T17:33:43;-3.60;14.50
4054;DHT22;2042;47.956;9.222;2022-12-18T17:36:09;-3.60;14.50
4054;DHT22;2042;47.956;9.222;2022-12-18T17:38:35;-3.70;14.40
4054;DHT22;2042;47.956;9.222;2022-12-18T17:41:06;-3.70;14.60
4054;DHT22;2042;47.956;9.222;2022-12-18T17:43:33;-3.70;14.80
4054;DHT22;2042;47.956;9.222;2022-12-18T17:46:06;-3.70;15.40
4054;DHT22;2042;47.956;9.222;2022-12-18T17:48:32;-3.70;15.80
4054;DHT22;2042;47.956;9.222;2022-12-18T17:51:02;-3.70;15.80
4054;DHT22;2042;47.956;9.222;2022-12-18T17:53:28;-3.70;15.90
4054;DHT22;2042;47.956;9.222;2022-12-18T17:55:55;-3.70;16.00
4054;DHT22;2042;47.956;9.222;2022-12-18T17:58:21;-3.70;16.10
4054;DHT22;2042;47.956;9.222;2022-12-18T18:00:47;-3.70;16.40
4054;DHT22;2042;47.956;9.222;2022-12-18T18:03:12;-3.70;16.80
4054;DHT22;2042;47.956;9.222;2022-12-18T18:05:38;-3.70;17.00
4054;DHT22;2042;47.956;9.222;2022-12-18T18:08:04;-3.70;17.30
4054;DHT22;2042;47.956;9.222;2022-12-18T18:10:30;-3.70;17.70
4054;DHT22;2042;47.956;9.222;2022-12-18T18:12:57;-3.60;18.10
4054;DHT22;2042;47.956;9.222;2022-12-18T18:15:41;-3.50;18.30
4054;DHT22;2042;47.956;9.222;2022-12-18T18:18:07;-3.50;18.40
4054;DHT22;2042;47.956;9.222;2022-12-18T18:20:33;-3.50;18.70
4054;DHT22;2042;47.956;9.222;2022-12-18T18:23:03;-3.50;18.90
4054;DHT22;2042;47.956;9.222;2022-12-18T18:25:28;-3.50;19.00
4054;DHT22;2042;47.956;9.222;2022-12-18T18:27:54;-3.40;19.40
4054;DHT22;2042;47.956;9.222;2022-12-18T18:30:20;-3.40;19.30